createdAt,value
2023-03-05T00:02:52.772Z,1005.58
2023-03-05T00:07:52.774Z,1005.53
2023-03-05T00:12:54.613Z,1005.51
2023-03-05T00:17:52.524Z,1005.48
2023-03-05T00:23:01.739Z,1005.37
2023-03-05T00:27:52.574Z,1005.35
2023-03-05T00:32:53.088Z,1005.33
2023-03-05T00:37:52.342Z,1005.33
2023-03-05T00:42:53.491Z,1005.28
2023-03-05T00:47:52.152Z,1005.24
2023-03-05T00:52:52.049Z,1005.21
2023-03-05T00:57:52.053Z,1005.16
2023-03-05T01:02:52.001Z,1005.18
2023-03-05T01:07:51.944Z,1005.09
2023-03-05T01:12:51.892Z,1005.01
2023-03-05T01:17:51.871Z,1004.98
2023-03-05T01:22:52.886Z,1005.02
2023-03-05T01:27:58.449Z,1004.93
2023-03-05T01:32:52.590Z,1004.88
2023-03-05T01:37:51.550Z,1004.88
2023-03-05T01:42:51.572Z,1004.80
2023-03-05T01:47:51.708Z,1004.80
2023-03-05T01:52:51.428Z,1004.69
2023-03-05T01:57:53.554Z,1004.71
2023-03-05T02:02:51.400Z,1004.65
2023-03-05T02:07:51.187Z,1004.59
2023-03-05T02:12:51.174Z,1004.59
2023-03-05T02:17:51.347Z,1004.55
2023-03-05T02:22:51.085Z,1004.43
2023-03-05T02:27:51.000Z,1004.39
2023-03-05T02:32:50.952Z,1004.29
2023-03-05T02:37:50.876Z,1004.19
2023-03-05T02:42:50.817Z,1004.18
2023-03-05T02:47:50.819Z,1004.19
2023-03-05T02:52:50.740Z,1004.18
2023-03-05T02:57:50.782Z,1004.11
2023-03-05T03:02:50.783Z,1004.02
2023-03-05T03:07:50.671Z,1004.01
2023-03-05T03:12:50.597Z,1003.89
2023-03-05T03:17:50.456Z,1003.84
2023-03-05T03:22:50.422Z,1003.78
2023-03-05T03:27:50.361Z,1003.70
2023-03-05T03:32:50.297Z,1003.61
2023-03-05T03:37:50.410Z,1003.57
2023-03-05T03:42:52.308Z,1003.54
2023-03-05T03:47:50.270Z,1003.45
2023-03-05T03:52:50.233Z,1003.41
2023-03-05T03:57:50.153Z,1003.34
2023-03-05T04:02:50.013Z,1003.31
2023-03-05T04:07:49.904Z,1003.24
2023-03-05T04:12:49.842Z,1003.20
2023-03-05T04:17:49.910Z,1003.15
2023-03-05T04:22:49.855Z,1003.14
2023-03-05T04:27:49.805Z,1003.13
2023-03-05T04:32:49.619Z,1003.10
2023-03-05T04:37:50.641Z,1003.01
2023-03-05T04:42:49.496Z,1002.95
2023-03-05T04:47:49.460Z,1002.94
2023-03-05T04:52:49.406Z,1002.88
2023-03-05T04:57:49.334Z,1002.86
2023-03-05T05:02:49.504Z,1002.77
2023-03-05T05:07:49.412Z,1002.71
2023-03-05T05:12:49.347Z,1002.72
2023-03-05T05:17:49.214Z,1002.70
2023-03-05T05:22:49.075Z,1002.67
2023-03-05T05:27:49.015Z,1002.62
2023-03-05T05:32:48.976Z,1002.61
2023-03-05T05:37:48.933Z,1002.54
2023-03-05T05:42:49.005Z,1002.56
2023-03-05T05:47:48.770Z,1002.50
2023-03-05T05:52:48.769Z,1002.51
2023-03-05T05:57:48.687Z,1002.49
2023-03-05T06:02:48.654Z,1002.43
2023-03-05T06:07:48.583Z,1002.50
2023-03-05T06:12:48.543Z,1002.55
2023-03-05T06:17:48.703Z,1002.52
2023-03-05T06:22:49.579Z,1002.45
2023-03-05T06:27:48.398Z,1002.44
2023-03-05T06:32:48.492Z,1002.39
2023-03-05T06:37:48.385Z,1002.47
2023-03-05T06:42:48.331Z,1002.53
2023-03-05T06:47:48.136Z,1002.38
2023-03-05T06:52:48.128Z,1002.47
2023-03-05T06:57:48.245Z,1002.37
2023-03-05T07:02:49.156Z,1002.38
2023-03-05T07:07:47.973Z,1002.37
2023-03-05T07:12:48.047Z,1002.34
2023-03-05T07:17:49.024Z,1002.25
2023-03-05T07:22:47.884Z,1002.20
2023-03-05T07:27:47.746Z,1002.22
2023-03-05T07:32:47.717Z,1002.16
2023-03-05T07:37:47.786Z,1002.12
2023-03-05T07:42:47.639Z,1002.09
2023-03-05T07:47:47.569Z,1002.07
2023-03-05T07:52:47.548Z,1002.10
2023-03-05T07:57:47.484Z,1001.95
2023-03-05T08:02:47.492Z,1001.93
2023-03-05T08:07:47.331Z,1001.80
2023-03-05T08:12:47.295Z,1001.76
2023-03-05T08:17:47.144Z,1001.77
2023-03-05T08:22:47.134Z,1001.71
2023-03-05T08:27:47.141Z,1001.72
2023-03-05T08:32:47.669Z,1001.65
2023-03-05T08:37:49.073Z,1001.62
2023-03-05T08:42:46.911Z,1001.57
2023-03-05T08:47:46.845Z,1001.56
2023-03-05T08:52:46.786Z,1001.53
2023-03-05T08:57:46.784Z,1001.52
2023-03-05T09:02:46.792Z,1001.48
2023-03-05T09:07:46.633Z,1001.48
2023-03-05T09:12:46.552Z,1001.49
2023-03-05T09:17:46.559Z,1001.36
2023-03-05T09:22:46.526Z,1001.34
2023-03-05T09:27:46.395Z,1001.31
2023-03-05T09:32:46.399Z,1001.26
2023-03-05T09:37:46.319Z,1001.20
2023-03-05T09:42:46.280Z,1001.24
2023-03-05T09:47:46.246Z,1001.12
2023-03-05T09:52:46.144Z,1001.16
2023-03-05T09:57:46.129Z,1001.16
2023-03-05T10:02:46.069Z,1001.17
2023-03-05T10:07:45.990Z,1001.10
2023-03-05T10:12:45.971Z,1001.01
2023-03-05T10:17:45.879Z,1000.96
2023-03-05T10:22:45.807Z,1000.94
2023-03-05T10:27:47.042Z,1000.78
2023-03-05T10:32:46.174Z,1000.76
2023-03-05T10:37:45.625Z,1000.67
2023-03-05T10:42:45.915Z,1000.58
2023-03-05T10:47:45.543Z,1000.58
2023-03-05T10:52:45.605Z,1000.51
2023-03-05T10:57:45.555Z,1000.38
2023-03-05T11:02:45.569Z,1000.34
2023-03-05T11:07:45.305Z,1000.27
2023-03-05T11:12:45.267Z,1000.32
2023-03-05T11:17:45.256Z,1000.23
2023-03-05T11:22:45.125Z,1000.24
2023-03-05T11:27:45.051Z,1000.29
2023-03-05T11:32:45.066Z,1000.24
2023-03-05T11:37:48.412Z,1000.26
2023-03-05T11:42:46.638Z,1000.23
2023-03-05T11:47:45.022Z,1000.21
2023-03-05T11:52:44.796Z,1000.14
2023-03-05T11:57:44.799Z,1000.05
2023-03-05T12:02:46.834Z,999.96
2023-03-05T12:07:44.634Z,999.88
2023-03-05T12:12:44.656Z,999.74
2023-03-05T12:17:44.642Z,999.61
2023-03-05T12:22:44.592Z,999.50
2023-03-05T12:27:44.867Z,999.35
2023-03-05T12:32:44.671Z,999.24
2023-03-05T12:37:46.376Z,999.08
2023-03-05T12:42:44.353Z,998.98
2023-03-05T12:47:44.288Z,998.89
2023-03-05T12:52:45.041Z,998.84
2023-03-05T12:57:44.116Z,998.82
2023-03-05T13:02:44.027Z,998.71
2023-03-05T13:07:44.058Z,998.62
2023-03-05T13:12:44.006Z,998.47
2023-03-05T13:17:43.847Z,998.31
2023-03-05T13:22:43.855Z,998.34
2023-03-05T13:27:43.801Z,998.28
2023-03-05T13:32:43.762Z,998.21
2023-03-05T13:37:43.625Z,998.15
2023-03-05T13:42:43.584Z,998.15
2023-03-05T13:47:43.568Z,998.08
2023-03-05T13:52:43.498Z,997.93
2023-03-05T13:57:43.445Z,997.85
2023-03-05T14:02:43.505Z,997.85
2023-03-05T14:07:43.324Z,997.74
2023-03-05T14:12:43.287Z,997.68
2023-03-05T14:17:43.209Z,997.68
2023-03-05T14:22:43.230Z,997.57
2023-03-05T14:27:43.164Z,997.48
2023-03-05T14:32:46.477Z,997.45
2023-03-05T14:37:42.991Z,997.35
2023-03-05T14:42:42.935Z,997.35
2023-03-05T14:47:42.869Z,997.21
2023-03-05T14:52:42.859Z,997.17
2023-03-05T14:57:42.800Z,997.11
2023-03-05T15:02:42.843Z,997.00
2023-03-05T15:07:42.702Z,996.90
2023-03-05T15:12:42.662Z,996.87
2023-03-05T15:17:42.556Z,996.81
2023-03-05T15:22:42.524Z,996.76
2023-03-05T15:27:42.454Z,996.68
2023-03-05T15:32:43.419Z,996.67
2023-03-05T15:37:42.466Z,996.62
2023-03-05T15:42:42.409Z,996.63
2023-03-05T15:47:45.729Z,996.57
2023-03-05T15:52:42.165Z,996.49
2023-03-05T15:57:42.083Z,996.45
2023-03-05T16:02:42.083Z,996.42
2023-03-05T16:07:43.038Z,996.32
2023-03-05T16:12:41.987Z,996.36
2023-03-05T16:17:43.098Z,996.24
2023-03-05T16:22:41.933Z,996.27
2023-03-05T16:27:41.799Z,996.23
2023-03-05T16:32:41.845Z,996.17
2023-03-05T16:37:41.682Z,996.13
2023-03-05T16:42:41.650Z,996.01
2023-03-05T16:47:41.616Z,996.00
2023-03-05T16:52:41.525Z,995.98
2023-03-05T16:57:41.474Z,995.98
2023-03-05T17:02:41.393Z,995.99
2023-03-05T17:07:41.364Z,996.01
2023-03-05T17:12:41.292Z,995.96
2023-03-05T17:17:41.338Z,995.97
2023-03-05T17:22:41.268Z,995.94
2023-03-05T17:27:41.120Z,995.91
2023-03-05T17:32:42.562Z,995.92
2023-03-05T17:37:41.063Z,995.86
2023-03-05T17:42:41.033Z,995.91
2023-03-05T17:47:40.930Z,995.90
2023-03-05T17:52:41.950Z,995.90
2023-03-05T17:57:40.862Z,995.91
2023-03-05T18:02:40.812Z,995.92
2023-03-05T18:07:40.692Z,995.85
2023-03-05T18:12:40.633Z,995.83
2023-03-05T18:17:40.598Z,995.79
2023-03-05T18:22:40.593Z,995.70
2023-03-05T18:27:40.524Z,995.70
2023-03-05T18:32:40.519Z,995.68
2023-03-05T18:37:40.433Z,995.66
2023-03-05T18:42:40.357Z,995.58
2023-03-05T18:47:40.273Z,995.55
2023-03-05T18:52:40.239Z,995.46
2023-03-05T18:57:41.161Z,995.50
2023-03-05T19:02:40.100Z,995.42
2023-03-05T19:07:40.220Z,995.32
2023-03-05T19:12:40.008Z,995.33
2023-03-05T19:17:39.957Z,995.29
2023-03-05T19:22:52.898Z,995.27
2023-03-05T19:27:40.035Z,995.26
2023-03-05T19:32:40.017Z,995.19
2023-03-05T19:37:39.958Z,995.11
2023-03-05T19:42:39.827Z,995.09
2023-03-05T19:47:39.829Z,995.12
2023-03-05T19:52:41.970Z,995.05
2023-03-05T19:57:39.656Z,995.01
2023-03-05T20:02:40.800Z,994.98
2023-03-05T20:07:41.684Z,994.92
2023-03-05T20:12:39.428Z,994.93
2023-03-05T20:17:39.303Z,994.80
2023-03-05T20:22:47.639Z,994.82
2023-03-05T20:27:39.306Z,994.76
2023-03-05T20:32:39.252Z,994.75
2023-03-05T20:37:39.549Z,994.73
2023-03-05T20:44:20.935Z,994.64
2023-03-05T20:49:20.520Z,994.66
2023-03-05T20:54:20.625Z,994.61
2023-03-05T20:59:20.888Z,994.51
2023-03-05T21:04:20.031Z,994.47
2023-03-05T21:09:19.885Z,994.42
2023-03-05T21:14:23.272Z,994.43
2023-03-05T21:19:24.309Z,994.35
2023-03-05T21:24:19.881Z,994.29
2023-03-05T21:29:20.778Z,994.23
2023-03-05T21:34:19.677Z,994.21
2023-03-05T21:39:19.507Z,994.19
2023-03-05T21:44:19.678Z,994.07
2023-03-05T21:49:19.558Z,994.02
2023-03-05T21:54:19.316Z,993.98
2023-03-05T21:59:19.331Z,993.87
2023-03-05T22:04:19.311Z,993.82
2023-03-05T22:09:19.150Z,993.67
2023-03-05T22:14:22.585Z,993.65
2023-03-05T22:19:19.053Z,993.57
2023-03-05T22:24:19.034Z,993.56
2023-03-05T22:29:19.015Z,993.47
2023-03-05T22:34:18.889Z,993.37
2023-03-05T22:39:18.808Z,993.32
2023-03-05T22:44:18.803Z,993.26
2023-03-05T22:49:18.688Z,993.27
2023-03-05T22:54:18.671Z,993.25
2023-03-05T22:59:20.758Z,993.17
2023-03-05T23:04:18.596Z,993.12
2023-03-05T23:09:18.650Z,993.08
2023-03-05T23:14:26.551Z,993.04
2023-03-05T23:19:18.475Z,993.00
2023-03-05T23:24:18.336Z,992.92
2023-03-05T23:29:18.260Z,992.96
2023-03-05T23:34:19.257Z,992.89
2023-03-05T23:39:18.223Z,992.80
2023-03-05T23:44:18.178Z,992.81
2023-03-05T23:49:18.160Z,992.79
2023-03-05T23:54:18.027Z,992.75
2023-03-05T23:59:17.994Z,992.70
